KCMY/CMY METAR and TAF weather

Enter ICAO airport designator
Station Type Date Time Source
KCMY METAR 2020/07/14 16:55 UTC NOAA

KCMY 141655Z AUTO 18007KT 10SM CLR 25/19 A2991 RMK AO2 T02510187


Station Type Date Time Source
KCMY Decoded METAR 2020/07/14 16:55 UTC NOAA

Sparta, Sparta / Fort McCoy Airport, WI, United States (KCMY) 43-57-30N 090-44-16W
Jul 14, 2020 - 12:55 PM EDT / 2020.07.14 1655 UTC
Wind: from the S (180 degrees) at 8 MPH (7 KT):0
Visibility: 10 mile(s):0
Sky conditions: clear
Temperature: 77.2 F (25.1 C)
Dew Point: 65.7 F (18.7 C)
Relative Humidity: 67%
Pressure (altimeter): 29.91 in. Hg (1012 hPa)
ob: KCMY 141655Z AUTO 18007KT 10SM CLR 25/19 A2991 RMK AO2 T02510187
cycle: 17

Station Type Date Time Source
KCMY TAF UTC NOAA

Error!

Example: see airport list